sensor_id;sensor_type;location;lat;lon;timestamp;P1;durP1;ratioP1;P2;durP2;ratioP2
46723;SDS011;32463;48.298;11.620;2022-11-15T00:00:55;26.25;;;15.40;;
46723;SDS011;32463;48.298;11.620;2022-11-15T00:03:24;28.15;;;17.15;;
46723;SDS011;32463;48.298;11.620;2022-11-15T00:05:52;26.27;;;16.70;;
46723;SDS011;32463;48.298;11.620;2022-11-15T00:08:19;27.65;;;16.13;;
46723;SDS011;32463;48.298;11.620;2022-11-15T00:10:56;26.48;;;15.23;;
46723;SDS011;32463;48.298;11.620;2022-11-15T00:13:24;23.50;;;13.13;;
46723;SDS011;32463;48.298;11.620;2022-11-15T00:15:51;21.08;;;12.55;;
46723;SDS011;32463;48.298;11.620;2022-11-15T00:18:18;21.25;;;12.25;;
46723;SDS011;32463;48.298;11.620;2022-11-15T00:20:45;17.75;;;10.70;;
46723;SDS011;32463;48.298;11.620;2022-11-15T00:23:11;21.90;;;12.98;;
46723;SDS011;32463;48.298;11.620;2022-11-15T00:25:38;18.48;;;11.50;;
46723;SDS011;32463;48.298;11.620;2022-11-15T00:28:05;16.98;;;10.80;;
46723;SDS011;32463;48.298;11.620;2022-11-15T00:30:32;22.10;;;12.73;;
46723;SDS011;32463;48.298;11.620;2022-11-15T00:33:06;20.20;;;12.32;;
46723;SDS011;32463;48.298;11.620;2022-11-15T00:35:33;18.15;;;11.55;;
46723;SDS011;32463;48.298;11.620;2022-11-15T00:38:00;19.75;;;12.10;;
46723;SDS011;32463;48.298;11.620;2022-11-15T00:40:28;15.95;;;10.45;;
46723;SDS011;32463;48.298;11.620;2022-11-15T00:42:55;15.85;;;10.40;;
46723;SDS011;32463;48.298;11.620;2022-11-15T00:45:22;16.63;;;10.15;;
46723;SDS011;32463;48.298;11.620;2022-11-15T00:47:49;16.52;;;9.50;;
46723;SDS011;32463;48.298;11.620;2022-11-15T00:50:15;17.33;;;10.43;;
46723;SDS011;32463;48.298;11.620;2022-11-15T00:52:42;17.40;;;11.05;;
46723;SDS011;32463;48.298;11.620;2022-11-15T00:55:15;20.77;;;12.18;;
46723;SDS011;32463;48.298;11.620;2022-11-15T00:57:43;18.27;;;11.73;;
46723;SDS011;32463;48.298;11.620;2022-11-15T01:00:10;21.10;;;12.32;;
46723;SDS011;32463;48.298;11.620;2022-11-15T01:02:37;16.05;;;10.68;;
46723;SDS011;32463;48.298;11.620;2022-11-15T01:05:04;15.13;;;9.63;;
46723;SDS011;32463;48.298;11.620;2022-11-15T01:07:31;14.75;;;9.60;;
46723;SDS011;32463;48.298;11.620;2022-11-15T01:09:57;21.83;;;10.63;;
46723;SDS011;32463;48.298;11.620;2022-11-15T01:12:24;17.10;;;11.02;;
46723;SDS011;32463;48.298;11.620;2022-11-15T01:14:50;17.20;;;11.05;;
46723;SDS011;32463;48.298;11.620;2022-11-15T01:17:17;17.85;;;10.88;;
46723;SDS011;32463;48.298;11.620;2022-11-15T01:19:43;18.33;;;10.40;;
46723;SDS011;32463;48.298;11.620;2022-11-15T01:22:09;19.38;;;11.30;;
46723;SDS011;32463;48.298;11.620;2022-11-15T01:24:36;17.30;;;11.13;;
46723;SDS011;32463;48.298;11.620;2022-11-15T01:27:02;20.75;;;11.80;;
46723;SDS011;32463;48.298;11.620;2022-11-15T01:29:29;18.05;;;9.90;;
46723;SDS011;32463;48.298;11.620;2022-11-15T01:31:55;15.02;;;9.68;;
46723;SDS011;32463;48.298;11.620;2022-11-15T01:34:22;18.40;;;11.00;;
46723;SDS011;32463;48.298;11.620;2022-11-15T01:36:49;20.25;;;11.48;;
46723;SDS011;32463;48.298;11.620;2022-11-15T01:39:15;20.33;;;11.80;;
46723;SDS011;32463;48.298;11.620;2022-11-15T01:41:42;19.17;;;10.77;;
46723;SDS011;32463;48.298;11.620;2022-11-15T01:47:01;19.17;;;11.70;;
46723;SDS011;32463;48.298;11.620;2022-11-15T01:49:31;20.13;;;12.13;;
46723;SDS011;32463;48.298;11.620;2022-11-15T01:52:00;21.92;;;12.63;;
46723;SDS011;32463;48.298;11.620;2022-11-15T01:54:29;20.23;;;12.40;;
46723;SDS011;32463;48.298;11.620;2022-11-15T01:56:58;24.77;;;13.35;;
46723;SDS011;32463;48.298;11.620;2022-11-15T01:59:28;21.25;;;12.38;;
46723;SDS011;32463;48.298;11.620;2022-11-15T02:01:54;17.48;;;11.02;;
46723;SDS011;32463;48.298;11.620;2022-11-15T02:04:25;15.27;;;9.90;;
46723;SDS011;32463;48.298;11.620;2022-11-15T02:06:53;14.18;;;9.77;;
46723;SDS011;32463;48.298;11.620;2022-11-15T02:09:20;15.63;;;9.85;;
46723;SDS011;32463;48.298;11.620;2022-11-15T02:11:47;16.73;;;9.18;;
46723;SDS011;32463;48.298;11.620;2022-11-15T02:14:16;18.80;;;11.90;;
46723;SDS011;32463;48.298;11.620;2022-11-15T02:23:11;21.42;;;11.70;;
46723;SDS011;32463;48.298;11.620;2022-11-15T02:30:42;17.25;;;10.73;;
46723;SDS011;32463;48.298;11.620;2022-11-15T02:35:44;15.75;;;10.23;;
46723;SDS011;32463;48.298;11.620;2022-11-15T02:44:01;22.35;;;12.05;;
46723;SDS011;32463;48.298;11.620;2022-11-15T02:49:23;17.48;;;10.57;;
46723;SDS011;32463;48.298;11.620;2022-11-15T02:51:52;18.38;;;10.85;;
46723;SDS011;32463;48.298;11.620;2022-11-15T02:54:24;21.83;;;10.63;;
46723;SDS011;32463;48.298;11.620;2022-11-15T02:56:55;19.35;;;10.98;;
46723;SDS011;32463;48.298;11.620;2022-11-15T03:02:26;18.67;;;11.55;;
46723;SDS011;32463;48.298;11.620;2022-11-15T03:05:03;19.08;;;11.45;;
46723;SDS011;32463;48.298;11.620;2022-11-15T03:10:32;19.60;;;11.25;;
46723;SDS011;32463;48.298;11.620;2022-11-15T03:13:26;17.77;;;10.50;;
46723;SDS011;32463;48.298;11.620;2022-11-15T03:18:45;18.52;;;11.55;;
46723;SDS011;32463;48.298;11.620;2022-11-15T03:21:19;20.38;;;11.95;;
46723;SDS011;32463;48.298;11.620;2022-11-15T03:23:47;20.70;;;11.88;;
46723;SDS011;32463;48.298;11.620;2022-11-15T03:26:16;17.92;;;10.73;;
46723;SDS011;32463;48.298;11.620;2022-11-15T03:28:47;17.75;;;11.68;;
46723;SDS011;32463;48.298;11.620;2022-11-15T03:31:18;16.27;;;10.80;;
46723;SDS011;32463;48.298;11.620;2022-11-15T03:34:05;19.02;;;10.65;;
46723;SDS011;32463;48.298;11.620;2022-11-15T03:36:36;18.20;;;10.45;;
46723;SDS011;32463;48.298;11.620;2022-11-15T03:39:05;15.50;;;10.70;;
46723;SDS011;32463;48.298;11.620;2022-11-15T03:41:39;13.77;;;9.02;;
46723;SDS011;32463;48.298;11.620;2022-11-15T03:47:10;17.27;;;10.30;;
46723;SDS011;32463;48.298;11.620;2022-11-15T03:49:42;17.42;;;10.65;;
46723;SDS011;32463;48.298;11.620;2022-11-15T03:52:12;20.30;;;12.32;;
46723;SDS011;32463;48.298;11.620;2022-11-15T03:54:50;19.13;;;11.63;;
46723;SDS011;32463;48.298;11.620;2022-11-15T03:57:18;17.67;;;11.18;;
46723;SDS011;32463;48.298;11.620;2022-11-15T03:59:44;17.27;;;10.52;;
46723;SDS011;32463;48.298;11.620;2022-11-15T04:02:11;13.70;;;9.32;;
46723;SDS011;32463;48.298;11.620;2022-11-15T04:04:38;17.40;;;9.38;;
46723;SDS011;32463;48.298;11.620;2022-11-15T04:07:05;16.60;;;9.48;;
46723;SDS011;32463;48.298;11.620;2022-11-15T04:09:31;14.30;;;8.10;;
46723;SDS011;32463;48.298;11.620;2022-11-15T04:11:58;13.63;;;8.98;;
46723;SDS011;32463;48.298;11.620;2022-11-15T04:14:24;13.73;;;9.05;;
46723;SDS011;32463;48.298;11.620;2022-11-15T04:16:51;12.60;;;8.80;;
46723;SDS011;32463;48.298;11.620;2022-11-15T04:19:17;12.88;;;7.85;;
46723;SDS011;32463;48.298;11.620;2022-11-15T04:22:01;16.92;;;8.30;;
46723;SDS011;32463;48.298;11.620;2022-11-15T04:24:44;13.52;;;9.25;;
46723;SDS011;32463;48.298;11.620;2022-11-15T04:27:11;12.98;;;8.20;;
46723;SDS011;32463;48.298;11.620;2022-11-15T04:29:38;12.63;;;8.85;;
46723;SDS011;32463;48.298;11.620;2022-11-15T04:32:05;11.90;;;7.07;;
46723;SDS011;32463;48.298;11.620;2022-11-15T04:34:32;18.05;;;9.63;;
46723;SDS011;32463;48.298;11.620;2022-11-15T04:36:59;16.98;;;9.00;;
46723;SDS011;32463;48.298;11.620;2022-11-15T04:39:38;14.80;;;8.55;;
46723;SDS011;32463;48.298;11.620;2022-11-15T04:42:05;12.05;;;7.20;;
46723;SDS011;32463;48.298;11.620;2022-11-15T04:44:32;12.43;;;7.90;;
46723;SDS011;32463;48.298;11.620;2022-11-15T04:46:58;12.25;;;8.43;;
46723;SDS011;32463;48.298;11.620;2022-11-15T04:49:25;15.68;;;8.95;;
46723;SDS011;32463;48.298;11.620;2022-11-15T04:51:52;14.73;;;8.52;;
46723;SDS011;32463;48.298;11.620;2022-11-15T04:54:18;12.95;;;8.35;;
46723;SDS011;32463;48.298;11.620;2022-11-15T04:56:45;14.18;;;8.73;;
46723;SDS011;32463;48.298;11.620;2022-11-15T04:59:11;15.68;;;10.05;;
46723;SDS011;32463;48.298;11.620;2022-11-15T05:01:37;16.42;;;10.30;;
46723;SDS011;32463;48.298;11.620;2022-11-15T05:04:04;17.40;;;10.93;;
46723;SDS011;32463;48.298;11.620;2022-11-15T05:06:46;15.95;;;9.90;;
46723;SDS011;32463;48.298;11.620;2022-11-15T05:09:16;16.02;;;9.95;;
46723;SDS011;32463;48.298;11.620;2022-11-15T05:11:44;17.17;;;9.55;;
46723;SDS011;32463;48.298;11.620;2022-11-15T05:14:10;14.18;;;9.65;;
46723;SDS011;32463;48.298;11.620;2022-11-15T05:16:37;14.23;;;9.38;;
46723;SDS011;32463;48.298;11.620;2022-11-15T05:19:03;12.73;;;8.35;;
46723;SDS011;32463;48.298;11.620;2022-11-15T05:21:30;15.48;;;9.50;;
46723;SDS011;32463;48.298;11.620;2022-11-15T05:23:58;17.10;;;10.05;;
46723;SDS011;32463;48.298;11.620;2022-11-15T05:26:24;13.68;;;9.43;;
46723;SDS011;32463;48.298;11.620;2022-11-15T05:28:54;15.52;;;10.32;;
46723;SDS011;32463;48.298;11.620;2022-11-15T05:31:22;13.63;;;8.85;;
46723;SDS011;32463;48.298;11.620;2022-11-15T05:33:49;16.75;;;10.68;;
46723;SDS011;32463;48.298;11.620;2022-11-15T05:38:58;19.33;;;12.23;;
46723;SDS011;32463;48.298;11.620;2022-11-15T05:41:30;20.45;;;11.48;;
46723;SDS011;32463;48.298;11.620;2022-11-15T05:44:02;21.75;;;12.73;;
46723;SDS011;32463;48.298;11.620;2022-11-15T05:46:33;24.63;;;13.82;;
46723;SDS011;32463;48.298;11.620;2022-11-15T05:49:00;50.20;;;25.45;;
46723;SDS011;32463;48.298;11.620;2022-11-15T05:51:27;33.00;;;18.65;;
46723;SDS011;32463;48.298;11.620;2022-11-15T05:53:55;33.22;;;18.92;;
46723;SDS011;32463;48.298;11.620;2022-11-15T05:56:24;31.13;;;18.33;;
46723;SDS011;32463;48.298;11.620;2022-11-15T05:58:52;33.35;;;19.38;;
46723;SDS011;32463;48.298;11.620;2022-11-15T06:01:21;36.35;;;17.60;;
46723;SDS011;32463;48.298;11.620;2022-11-15T06:03:47;25.33;;;15.82;;
46723;SDS011;32463;48.298;11.620;2022-11-15T06:06:14;24.67;;;15.68;;
46723;SDS011;32463;48.298;11.620;2022-11-15T06:08:40;29.58;;;16.65;;
46723;SDS011;32463;48.298;11.620;2022-11-15T06:11:07;22.83;;;14.65;;
46723;SDS011;32463;48.298;11.620;2022-11-15T06:13:34;22.58;;;12.73;;
46723;SDS011;32463;48.298;11.620;2022-11-15T06:16:00;22.38;;;13.90;;
46723;SDS011;32463;48.298;11.620;2022-11-15T06:18:27;28.48;;;15.23;;
46723;SDS011;32463;48.298;11.620;2022-11-15T06:20:53;24.58;;;14.45;;
46723;SDS011;32463;48.298;11.620;2022-11-15T06:23:20;31.05;;;17.77;;
46723;SDS011;32463;48.298;11.620;2022-11-15T06:25:46;37.63;;;20.15;;
46723;SDS011;32463;48.298;11.620;2022-11-15T06:28:12;40.25;;;21.75;;
46723;SDS011;32463;48.298;11.620;2022-11-15T06:30:39;32.95;;;18.05;;
46723;SDS011;32463;48.298;11.620;2022-11-15T06:33:06;29.35;;;16.20;;
46723;SDS011;32463;48.298;11.620;2022-11-15T06:35:34;25.65;;;15.15;;
46723;SDS011;32463;48.298;11.620;2022-11-15T06:38:02;21.27;;;13.55;;
46723;SDS011;32463;48.298;11.620;2022-11-15T06:40:32;20.88;;;12.43;;
46723;SDS011;32463;48.298;11.620;2022-11-15T06:43:02;28.73;;;17.30;;
46723;SDS011;32463;48.298;11.620;2022-11-15T06:45:30;32.42;;;17.75;;
46723;SDS011;32463;48.298;11.620;2022-11-15T06:47:57;20.08;;;13.40;;
46723;SDS011;32463;48.298;11.620;2022-11-15T06:50:24;19.85;;;12.68;;
46723;SDS011;32463;48.298;11.620;2022-11-15T06:52:51;21.67;;;13.15;;
46723;SDS011;32463;48.298;11.620;2022-11-15T06:55:17;23.27;;;12.88;;
46723;SDS011;32463;48.298;11.620;2022-11-15T06:57:50;23.00;;;12.38;;
46723;SDS011;32463;48.298;11.620;2022-11-15T07:00:18;23.52;;;14.45;;
46723;SDS011;32463;48.298;11.620;2022-11-15T07:02:46;25.77;;;14.68;;
46723;SDS011;32463;48.298;11.620;2022-11-15T07:05:13;19.10;;;12.45;;
46723;SDS011;32463;48.298;11.620;2022-11-15T07:07:40;20.08;;;13.13;;
46723;SDS011;32463;48.298;11.620;2022-11-15T07:10:07;19.70;;;12.60;;
46723;SDS011;32463;48.298;11.620;2022-11-15T07:12:34;17.98;;;12.23;;
46723;SDS011;32463;48.298;11.620;2022-11-15T07:15:01;21.48;;;12.80;;
46723;SDS011;32463;48.298;11.620;2022-11-15T07:17:27;23.20;;;13.27;;
46723;SDS011;32463;48.298;11.620;2022-11-15T07:19:54;21.20;;;13.02;;
46723;SDS011;32463;48.298;11.620;2022-11-15T07:22:20;18.25;;;12.10;;
46723;SDS011;32463;48.298;11.620;2022-11-15T07:24:47;19.27;;;11.85;;
46723;SDS011;32463;48.298;11.620;2022-11-15T07:27:13;19.05;;;12.07;;
46723;SDS011;32463;48.298;11.620;2022-11-15T07:29:39;17.85;;;12.15;;
46723;SDS011;32463;48.298;11.620;2022-11-15T07:32:06;19.10;;;12.80;;
46723;SDS011;32463;48.298;11.620;2022-11-15T07:34:32;19.17;;;13.30;;
46723;SDS011;32463;48.298;11.620;2022-11-15T07:36:59;19.42;;;13.23;;
46723;SDS011;32463;48.298;11.620;2022-11-15T07:39:25;21.70;;;13.50;;
46723;SDS011;32463;48.298;11.620;2022-11-15T07:41:52;18.58;;;11.57;;
46723;SDS011;32463;48.298;11.620;2022-11-15T07:44:39;20.55;;;12.68;;
46723;SDS011;32463;48.298;11.620;2022-11-15T07:47:05;17.23;;;10.55;;
46723;SDS011;32463;48.298;11.620;2022-11-15T07:49:32;18.08;;;10.77;;
46723;SDS011;32463;48.298;11.620;2022-11-15T07:51:58;16.33;;;10.43;;
46723;SDS011;32463;48.298;11.620;2022-11-15T07:54:25;17.70;;;10.48;;
46723;SDS011;32463;48.298;11.620;2022-11-15T07:56:51;14.75;;;9.48;;
46723;SDS011;32463;48.298;11.620;2022-11-15T07:59:17;15.30;;;9.45;;
46723;SDS011;32463;48.298;11.620;2022-11-15T08:01:44;14.43;;;9.57;;
46723;SDS011;32463;48.298;11.620;2022-11-15T08:04:11;12.93;;;8.27;;
46723;SDS011;32463;48.298;11.620;2022-11-15T08:06:37;11.32;;;8.00;;
46723;SDS011;32463;48.298;11.620;2022-11-15T08:09:04;9.73;;;6.63;;
46723;SDS011;32463;48.298;11.620;2022-11-15T08:11:30;12.77;;;7.00;;
46723;SDS011;32463;48.298;11.620;2022-11-15T08:13:57;9.48;;;6.50;;
46723;SDS011;32463;48.298;11.620;2022-11-15T08:16:23;10.23;;;5.63;;
46723;SDS011;32463;48.298;11.620;2022-11-15T08:18:50;8.65;;;5.82;;
46723;SDS011;32463;48.298;11.620;2022-11-15T08:21:18;9.75;;;5.85;;
46723;SDS011;32463;48.298;11.620;2022-11-15T08:23:45;10.13;;;5.85;;
46723;SDS011;32463;48.298;11.620;2022-11-15T08:26:12;9.60;;;5.47;;
46723;SDS011;32463;48.298;11.620;2022-11-15T08:28:39;8.32;;;5.53;;
46723;SDS011;32463;48.298;11.620;2022-11-15T08:31:06;10.65;;;5.75;;
46723;SDS011;32463;48.298;11.620;2022-11-15T08:33:32;9.23;;;5.80;;
46723;SDS011;32463;48.298;11.620;2022-11-15T08:35:59;8.57;;;5.97;;
46723;SDS011;32463;48.298;11.620;2022-11-15T08:38:26;7.55;;;5.40;;
46723;SDS011;32463;48.298;11.620;2022-11-15T08:40:54;10.02;;;5.72;;
46723;SDS011;32463;48.298;11.620;2022-11-15T08:43:27;10.77;;;5.50;;
46723;SDS011;32463;48.298;11.620;2022-11-15T08:45:57;7.70;;;5.07;;
46723;SDS011;32463;48.298;11.620;2022-11-15T08:48:23;9.13;;;6.47;;
46723;SDS011;32463;48.298;11.620;2022-11-15T08:50:54;8.18;;;5.47;;
46723;SDS011;32463;48.298;11.620;2022-11-15T08:53:21;9.18;;;6.10;;
46723;SDS011;32463;48.298;11.620;2022-11-15T08:55:49;7.82;;;5.32;;
46723;SDS011;32463;48.298;11.620;2022-11-15T08:58:15;9.25;;;6.25;;
46723;SDS011;32463;48.298;11.620;2022-11-15T09:00:42;11.32;;;5.03;;
46723;SDS011;32463;48.298;11.620;2022-11-15T09:03:08;8.55;;;4.88;;
46723;SDS011;32463;48.298;11.620;2022-11-15T09:05:35;8.18;;;4.60;;
46723;SDS011;32463;48.298;11.620;2022-11-15T09:08:02;8.55;;;4.78;;
46723;SDS011;32463;48.298;11.620;2022-11-15T09:10:29;7.38;;;4.80;;
46723;SDS011;32463;48.298;11.620;2022-11-15T09:12:58;9.50;;;4.70;;
46723;SDS011;32463;48.298;11.620;2022-11-15T09:15:25;7.40;;;4.72;;
46723;SDS011;32463;48.298;11.620;2022-11-15T09:17:51;6.97;;;4.30;;
46723;SDS011;32463;48.298;11.620;2022-11-15T09:20:18;5.82;;;4.15;;
46723;SDS011;32463;48.298;11.620;2022-11-15T09:22:44;5.68;;;4.28;;
46723;SDS011;32463;48.298;11.620;2022-11-15T09:25:11;7.03;;;4.00;;
46723;SDS011;32463;48.298;11.620;2022-11-15T09:27:37;6.93;;;4.10;;
46723;SDS011;32463;48.298;11.620;2022-11-15T09:30:04;6.35;;;3.95;;
46723;SDS011;32463;48.298;11.620;2022-11-15T09:32:30;6.60;;;3.90;;
46723;SDS011;32463;48.298;11.620;2022-11-15T09:34:57;9.23;;;4.35;;
46723;SDS011;32463;48.298;11.620;2022-11-15T09:37:23;6.20;;;3.72;;
46723;SDS011;32463;48.298;11.620;2022-11-15T09:39:50;7.28;;;3.97;;
46723;SDS011;32463;48.298;11.620;2022-11-15T09:53:04;7.35;;;3.70;;
46723;SDS011;32463;48.298;11.620;2022-11-15T09:55:34;8.75;;;3.45;;
46723;SDS011;32463;48.298;11.620;2022-11-15T10:01:06;4.35;;;3.03;;
46723;SDS011;32463;48.298;11.620;2022-11-15T10:03:41;4.75;;;3.22;;
46723;SDS011;32463;48.298;11.620;2022-11-15T10:06:08;4.93;;;3.28;;
46723;SDS011;32463;48.298;11.620;2022-11-15T10:11:37;5.22;;;3.53;;
46723;SDS011;32463;48.298;11.620;2022-11-15T10:14:10;4.68;;;3.53;;
46723;SDS011;32463;48.298;11.620;2022-11-15T10:19:14;5.72;;;3.40;;
46723;SDS011;32463;48.298;11.620;2022-11-15T10:24:46;4.43;;;3.38;;
46723;SDS011;32463;48.298;11.620;2022-11-15T10:27:14;5.20;;;3.80;;
46723;SDS011;32463;48.298;11.620;2022-11-15T10:29:43;4.15;;;2.80;;
46723;SDS011;32463;48.298;11.620;2022-11-15T10:32:13;5.63;;;3.50;;
46723;SDS011;32463;48.298;11.620;2022-11-15T10:34:40;4.68;;;3.25;;
46723;SDS011;32463;48.298;11.620;2022-11-15T10:37:07;5.07;;;3.28;;
46723;SDS011;32463;48.298;11.620;2022-11-15T10:39:34;6.15;;;3.60;;
46723;SDS011;32463;48.298;11.620;2022-11-15T10:45:08;4.88;;;3.28;;
46723;SDS011;32463;48.298;11.620;2022-11-15T10:47:50;4.85;;;3.30;;
46723;SDS011;32463;48.298;11.620;2022-11-15T10:50:30;3.67;;;2.90;;
46723;SDS011;32463;48.298;11.620;2022-11-15T10:52:57;5.65;;;3.22;;
46723;SDS011;32463;48.298;11.620;2022-11-15T10:55:30;5.35;;;3.33;;
46723;SDS011;32463;48.298;11.620;2022-11-15T10:58:03;6.32;;;3.22;;
46723;SDS011;32463;48.298;11.620;2022-11-15T11:00:33;4.68;;;3.10;;
46723;SDS011;32463;48.298;11.620;2022-11-15T11:03:20;5.55;;;3.17;;
46723;SDS011;32463;48.298;11.620;2022-11-15T11:05:50;5.63;;;3.03;;
46723;SDS011;32463;48.298;11.620;2022-11-15T11:08:34;4.78;;;3.10;;
46723;SDS011;32463;48.298;11.620;2022-11-15T11:11:02;7.05;;;3.30;;
46723;SDS011;32463;48.298;11.620;2022-11-15T11:13:31;4.78;;;3.70;;
46723;SDS011;32463;48.298;11.620;2022-11-15T11:27:29;6.05;;;4.13;;
46723;SDS011;32463;48.298;11.620;2022-11-15T11:30:07;5.78;;;3.67;;
46723;SDS011;32463;48.298;11.620;2022-11-15T11:38:15;5.75;;;3.70;;
46723;SDS011;32463;48.298;11.620;2022-11-15T11:49:04;5.40;;;4.30;;
46723;SDS011;32463;48.298;11.620;2022-11-15T11:51:49;5.18;;;3.88;;
46723;SDS011;32463;48.298;11.620;2022-11-15T11:54:30;6.45;;;4.32;;
46723;SDS011;32463;48.298;11.620;2022-11-15T11:57:04;6.30;;;4.78;;
46723;SDS011;32463;48.298;11.620;2022-11-15T12:00:01;6.75;;;4.00;;
46723;SDS011;32463;48.298;11.620;2022-11-15T12:02:37;7.68;;;3.75;;
46723;SDS011;32463;48.298;11.620;2022-11-15T12:05:10;5.45;;;3.65;;
46723;SDS011;32463;48.298;11.620;2022-11-15T12:07:44;7.80;;;4.82;;
46723;SDS011;32463;48.298;11.620;2022-11-15T12:10:21;6.25;;;3.88;;
46723;SDS011;32463;48.298;11.620;2022-11-15T12:12:52;5.20;;;3.95;;
46723;SDS011;32463;48.298;11.620;2022-11-15T12:15:39;4.93;;;3.67;;
46723;SDS011;32463;48.298;11.620;2022-11-15T12:18:12;6.13;;;3.97;;
46723;SDS011;32463;48.298;11.620;2022-11-15T12:20:42;5.73;;;3.93;;
46723;SDS011;32463;48.298;11.620;2022-11-15T12:23:24;5.13;;;3.37;;
46723;SDS011;32463;48.298;11.620;2022-11-15T12:31:12;10.20;;;3.75;;
46723;SDS011;32463;48.298;11.620;2022-11-15T12:33:43;4.40;;;3.42;;
46723;SDS011;32463;48.298;11.620;2022-11-15T12:38:52;7.25;;;3.75;;
46723;SDS011;32463;48.298;11.620;2022-11-15T12:41:24;4.70;;;3.60;;
46723;SDS011;32463;48.298;11.620;2022-11-15T12:43:55;6.95;;;4.25;;
46723;SDS011;32463;48.298;11.620;2022-11-15T12:49:09;5.22;;;3.80;;
46723;SDS011;32463;48.298;11.620;2022-11-15T13:17:43;4.57;;;3.67;;
46723;SDS011;32463;48.298;11.620;2022-11-15T13:27:59;4.43;;;3.50;;
46723;SDS011;32463;48.298;11.620;2022-11-15T13:30:30;5.28;;;3.33;;
46723;SDS011;32463;48.298;11.620;2022-11-15T13:33:05;3.95;;;3.20;;
46723;SDS011;32463;48.298;11.620;2022-11-15T13:35:41;3.78;;;3.00;;
46723;SDS011;32463;48.298;11.620;2022-11-15T13:38:26;4.17;;;2.80;;
46723;SDS011;32463;48.298;11.620;2022-11-15T13:40:56;5.85;;;3.38;;
46723;SDS011;32463;48.298;11.620;2022-11-15T13:43:28;6.05;;;2.95;;
46723;SDS011;32463;48.298;11.620;2022-11-15T13:48:33;5.72;;;3.33;;
46723;SDS011;32463;48.298;11.620;2022-11-15T13:51:03;5.45;;;3.17;;
46723;SDS011;32463;48.298;11.620;2022-11-15T13:53:33;9.35;;;3.58;;
46723;SDS011;32463;48.298;11.620;2022-11-15T13:56:04;6.20;;;3.20;;
46723;SDS011;32463;48.298;11.620;2022-11-15T13:58:31;6.10;;;3.35;;
46723;SDS011;32463;48.298;11.620;2022-11-15T14:01:01;3.85;;;3.20;;
46723;SDS011;32463;48.298;11.620;2022-11-15T14:03:31;5.10;;;3.75;;
46723;SDS011;32463;48.298;11.620;2022-11-15T14:08:41;4.30;;;3.30;;
46723;SDS011;32463;48.298;11.620;2022-11-15T14:11:23;5.25;;;3.55;;
46723;SDS011;32463;48.298;11.620;2022-11-15T14:16:53;6.63;;;4.47;;
46723;SDS011;32463;48.298;11.620;2022-11-15T14:24:45;7.78;;;3.95;;
46723;SDS011;32463;48.298;11.620;2022-11-15T14:27:32;5.53;;;3.63;;
46723;SDS011;32463;48.298;11.620;2022-11-15T14:29:59;6.22;;;3.38;;
46723;SDS011;32463;48.298;11.620;2022-11-15T14:32:27;4.90;;;3.55;;
46723;SDS011;32463;48.298;11.620;2022-11-15T14:34:57;5.47;;;3.55;;
46723;SDS011;32463;48.298;11.620;2022-11-15T14:37:30;7.20;;;3.33;;
46723;SDS011;32463;48.298;11.620;2022-11-15T14:40:03;4.38;;;3.00;;
46723;SDS011;32463;48.298;11.620;2022-11-15T14:42:31;7.82;;;3.60;;
46723;SDS011;32463;48.298;11.620;2022-11-15T14:44:58;5.00;;;3.38;;
46723;SDS011;32463;48.298;11.620;2022-11-15T14:47:25;5.10;;;3.75;;
46723;SDS011;32463;48.298;11.620;2022-11-15T14:49:51;5.20;;;3.38;;
46723;SDS011;32463;48.298;11.620;2022-11-15T14:52:25;5.07;;;3.47;;
46723;SDS011;32463;48.298;11.620;2022-11-15T14:54:54;7.18;;;3.75;;
46723;SDS011;32463;48.298;11.620;2022-11-15T14:57:24;6.47;;;4.05;;
46723;SDS011;32463;48.298;11.620;2022-11-15T14:59:50;6.00;;;4.20;;
46723;SDS011;32463;48.298;11.620;2022-11-15T15:02:20;6.78;;;4.13;;
46723;SDS011;32463;48.298;11.620;2022-11-15T15:04:49;6.20;;;3.72;;
46723;SDS011;32463;48.298;11.620;2022-11-15T15:07:16;5.30;;;3.72;;
46723;SDS011;32463;48.298;11.620;2022-11-15T15:09:43;7.68;;;4.65;;
46723;SDS011;32463;48.298;11.620;2022-11-15T15:12:17;5.85;;;3.65;;
46723;SDS011;32463;48.298;11.620;2022-11-15T15:14:45;7.00;;;4.22;;
46723;SDS011;32463;48.298;11.620;2022-11-15T15:17:13;7.85;;;5.65;;
46723;SDS011;32463;48.298;11.620;2022-11-15T15:19:40;11.18;;;6.75;;
46723;SDS011;32463;48.298;11.620;2022-11-15T15:22:10;10.38;;;7.18;;
46723;SDS011;32463;48.298;11.620;2022-11-15T15:24:40;9.75;;;7.20;;
46723;SDS011;32463;48.298;11.620;2022-11-15T15:27:07;10.35;;;6.38;;
46723;SDS011;32463;48.298;11.620;2022-11-15T15:29:33;9.02;;;5.63;;
46723;SDS011;32463;48.298;11.620;2022-11-15T15:32:00;9.38;;;6.47;;
46723;SDS011;32463;48.298;11.620;2022-11-15T15:34:27;8.95;;;6.22;;
46723;SDS011;32463;48.298;11.620;2022-11-15T15:39:53;10.73;;;7.25;;
46723;SDS011;32463;48.298;11.620;2022-11-15T15:42:21;10.63;;;7.22;;
46723;SDS011;32463;48.298;11.620;2022-11-15T15:44:48;11.48;;;8.55;;
46723;SDS011;32463;48.298;11.620;2022-11-15T15:47:20;12.18;;;8.60;;
46723;SDS011;32463;48.298;11.620;2022-11-15T15:49:48;10.73;;;7.93;;
46723;SDS011;32463;48.298;11.620;2022-11-15T15:52:16;12.45;;;8.45;;
46723;SDS011;32463;48.298;11.620;2022-11-15T15:54:43;14.18;;;7.45;;
46723;SDS011;32463;48.298;11.620;2022-11-15T15:57:11;12.93;;;7.68;;
46723;SDS011;32463;48.298;11.620;2022-11-15T15:59:39;12.25;;;7.55;;
46723;SDS011;32463;48.298;11.620;2022-11-15T16:02:05;10.85;;;7.13;;
46723;SDS011;32463;48.298;11.620;2022-11-15T16:04:32;11.57;;;7.40;;
46723;SDS011;32463;48.298;11.620;2022-11-15T16:06:59;13.48;;;7.75;;
46723;SDS011;32463;48.298;11.620;2022-11-15T16:09:29;9.93;;;6.75;;
46723;SDS011;32463;48.298;11.620;2022-11-15T16:12:13;11.95;;;7.95;;
46723;SDS011;32463;48.298;11.620;2022-11-15T16:14:41;12.15;;;7.32;;
46723;SDS011;32463;48.298;11.620;2022-11-15T16:17:10;10.07;;;7.18;;
46723;SDS011;32463;48.298;11.620;2022-11-15T16:19:43;11.52;;;6.75;;
46723;SDS011;32463;48.298;11.620;2022-11-15T16:22:10;11.68;;;7.00;;
46723;SDS011;32463;48.298;11.620;2022-11-15T16:24:36;9.82;;;6.40;;
46723;SDS011;32463;48.298;11.620;2022-11-15T16:27:02;11.48;;;7.68;;
46723;SDS011;32463;48.298;11.620;2022-11-15T16:29:29;49.67;;;29.67;;
46723;SDS011;32463;48.298;11.620;2022-11-15T16:31:56;70.90;;;42.03;;
46723;SDS011;32463;48.298;11.620;2022-11-15T16:34:22;27.83;;;17.67;;
46723;SDS011;32463;48.298;11.620;2022-11-15T16:36:50;18.27;;;12.35;;
46723;SDS011;32463;48.298;11.620;2022-11-15T16:39:18;18.38;;;11.55;;
46723;SDS011;32463;48.298;11.620;2022-11-15T16:41:44;16.52;;;11.77;;
46723;SDS011;32463;48.298;11.620;2022-11-15T16:44:12;15.18;;;10.45;;
46723;SDS011;32463;48.298;11.620;2022-11-15T16:46:42;21.02;;;10.65;;
46723;SDS011;32463;48.298;11.620;2022-11-15T16:49:12;16.50;;;10.13;;
46723;SDS011;32463;48.298;11.620;2022-11-15T16:51:39;15.25;;;9.95;;
46723;SDS011;32463;48.298;11.620;2022-11-15T16:54:09;19.48;;;11.35;;
46723;SDS011;32463;48.298;11.620;2022-11-15T16:56:35;21.63;;;11.73;;
46723;SDS011;32463;48.298;11.620;2022-11-15T16:59:03;19.02;;;11.95;;
46723;SDS011;32463;48.298;11.620;2022-11-15T17:01:31;26.00;;;13.07;;
46723;SDS011;32463;48.298;11.620;2022-11-15T17:04:02;20.13;;;12.63;;